Time;durP1;ratioP1;P1;durP2;ratioP2;P2;SDS_P1;SDS_P2;PMS_P1;PMS_P2;Temp;Humidity;BMP_temperature;BMP_pressure;BME280_temperature;BME280_humidity;BME280_pressure;Samples;Min_cycle;Max_cycle;Signal;HPM_P1;HPM_P2
2021/03/20 00:00:28;;;;;;;;;;;;;;;1.21;86.11;99247.16;1784764;80;20146;-72
2021/03/20 00:02:56;;;;;;;;;;;;;;;1.22;86.41;99236.64;1781616;80;20151;-72
2021/03/20 00:05:25;;;;;;;;;;;;;;;1.23;86.27;99236.99;1787779;80;20474;-70
2021/03/20 00:07:53;;;;;;;;;;;;;;;1.23;86.15;99247.89;1794177;80;20143;-71
2021/03/20 00:10:21;;;;;;;;;;;;;;;1.23;85.77;99247.41;1757752;80;20143;-71
2021/03/20 00:12:49;;;;;;;;;;;;;;;1.18;85.99;99244.30;1796035;80;20242;-72
2021/03/20 00:15:18;;;;;;;;;;;;;;;1.18;86.22;99237.78;1789561;80;20151;-71
2021/03/20 00:17:45;;;;;;;;;;;;;;;1.20;86.33;99246.33;1788310;80;20146;-72
2021/03/20 00:20:16;;;;;;;;;;;;;;;1.22;86.62;99241.03;1790018;80;20132;-72
2021/03/20 00:22:43;;;;;;;;;;;;;;;1.21;86.79;99238.87;1784356;80;20163;-70
2021/03/20 00:25:12;;;;;;;;;;;;;;;1.20;87.13;99241.56;1765535;80;20128;-69
2021/03/20 00:27:40;;;;;;;;;;;;;;;1.17;87.34;99241.31;1784828;80;20417;-72
2021/03/20 00:30:08;;;;;;;;;;;;;;;1.14;87.88;99242.80;1739302;80;20223;-72
2021/03/20 00:32:36;;;;;;;;;;;;;;;1.13;87.81;99239.84;1771550;80;20453;-72
2021/03/20 00:35:08;;;;;;;;;;;;;;;1.10;87.83;99238.72;1794601;80;20123;-73
2021/03/20 00:37:35;;;;;;;;;;;;;;;1.11;87.67;99246.45;1778468;80;20226;-70
2021/03/20 00:40:06;;;;;;;;;;;;;;;1.14;88.20;99243.66;1793776;80;20148;-72
2021/03/20 00:42:33;;;;;;;;;;;;;;;1.18;88.27;99244.30;1778469;80;20131;-70
2021/03/20 00:45:01;;;;;;;;;;;;;;;1.19;88.03;99242.04;1784334;80;20123;-72
2021/03/20 00:47:29;;;;;;;;;;;;;;;1.16;87.79;99231.36;1757638;80;20139;-69
2021/03/20 00:49:58;;;;;;;;;;;;;;;1.13;87.64;99234.16;1783084;80;20151;-69
2021/03/20 00:52:26;;;;;;;;;;;;;;;1.12;87.42;99232.95;1784382;80;20139;-70
2021/03/20 00:54:53;;;;;;;;;;;;;;;1.11;87.39;99226.91;1767018;80;20143;-71
2021/03/20 00:57:21;;;;;;;;;;;;;;;1.13;86.88;99229.42;1786802;80;20138;-72
2021/03/20 00:59:49;;;;;;;;;;;;;;;1.19;86.16;99228.19;1776737;80;20142;-72
2021/03/20 01:02:16;;;;;;;;;;;;;;;1.20;85.83;99220.73;1785148;80;20151;-72
2021/03/20 01:04:44;;;;;;;;;;;;;;;1.24;85.67;99217.84;1783028;80;20222;-72
2021/03/20 01:07:11;;;;;;;;;;;;;;;1.27;84.19;99216.34;1797078;80;20414;-72
2021/03/20 01:09:39;;;;;;;;;;;;;;;1.30;83.31;99220.03;1788383;80;20186;-72
2021/03/20 01:12:08;;;;;;;;;;;;;;;1.32;82.13;99223.84;1791736;80;20139;-72
2021/03/20 01:14:37;;;;;;;;;;;;;;;1.34;81.20;99222.80;1788663;80;20135;-72
2021/03/20 01:17:05;;;;;;;;;;;;;;;1.36;79.80;99222.70;1790407;80;20146;-72
2021/03/20 01:19:32;;;;;;;;;;;;;;;1.32;79.47;99223.84;1766178;80;20248;-72
2021/03/20 01:21:59;;;;;;;;;;;;;;;1.31;78.47;99219.55;1783363;80;20147;-72
2021/03/20 01:24:28;;;;;;;;;;;;;;;1.30;77.50;99220.51;1777070;80;20135;-72
2021/03/20 01:26:55;;;;;;;;;;;;;;;1.30;77.27;99222.64;1790412;80;20139;-72
2021/03/20 01:29:23;;;;;;;;;;;;;;;1.30;76.63;99216.60;1779747;80;20234;-72
2021/03/20 01:31:53;;;;;;;;;;;;;;;1.31;76.72;99219.55;1793320;80;20163;-72
2021/03/20 01:34:21;;;;;;;;;;;;;;;1.33;76.33;99222.92;1792448;80;20535;-71
2021/03/20 01:36:48;;;;;;;;;;;;;;;1.31;76.01;99217.81;1793893;80;20202;-71
2021/03/20 01:39:16;;;;;;;;;;;;;;;1.30;76.08;99222.64;1786573;80;20202;-72
2021/03/20 01:41:45;;;;;;;;;;;;;;;1.30;76.14;99226.55;1790328;80;20430;-72
2021/03/20 01:44:20;;;;;;;;;;;;;;;1.32;76.07;99229.05;1789883;80;20431;-72
2021/03/20 01:46:50;;;;;;;;;;;;;;;1.32;75.90;99229.88;1781600;80;20135;-71
2021/03/20 01:49:43;;;;;;;;;;;;;;;1.31;75.51;99232.14;1792025;80;20298;-72
2021/03/20 01:52:29;;;;;;;;;;;;;;;1.32;74.91;99233.80;1793465;80;20445;-72
2021/03/20 01:55:15;;;;;;;;;;;;;;;1.33;74.38;99230.73;1732876;80;20150;-72
2021/03/20 01:57:49;;;;;;;;;;;;;;;1.31;74.25;99236.48;1778020;80;20286;-71
2021/03/20 02:00:21;;;;;;;;;;;;;;;1.28;74.17;99236.23;1782368;80;20138;-71
2021/03/20 02:02:49;;;;;;;;;;;;;;;1.28;74.14;99244.05;1789581;80;20166;-71
2021/03/20 02:05:23;;;;;;;;;;;;;;;1.29;73.85;99245.73;1759746;80;20496;-71
2021/03/20 02:07:51;;;;;;;;;;;;;;;1.28;72.98;99247.96;1761259;80;20524;-70
2021/03/20 02:10:19;;;;;;;;;;;;;;;1.26;72.48;99249.83;1782771;80;20245;-71
2021/03/20 02:12:48;;;;;;;;;;;;;;;1.21;72.62;99247.98;1783207;80;20166;-71
2021/03/20 02:15:31;;;;;;;;;;;;;;;1.21;72.30;99256.27;1786209;80;20159;-70
2021/03/20 02:18:18;;;;;;;;;;;;;;;1.16;72.44;99250.90;1791091;80;20554;-70
2021/03/20 02:20:58;;;;;;;;;;;;;;;1.13;72.17;99257.59;1784133;80;20158;-71
2021/03/20 02:23:42;;;;;;;;;;;;;;;1.12;72.13;99257.25;1776490;80;20134;-71
2021/03/20 02:26:30;;;;;;;;;;;;;;;1.10;72.32;99258.26;1790718;80;20143;-71
2021/03/20 02:29:29;;;;;;;;;;;;;;;1.06;72.25;99259.39;1779459;80;20127;-71
2021/03/20 02:32:35;;;;;;;;;;;;;;;1.03;72.52;99262.19;1783567;80;20127;-71
2021/03/20 02:35:07;;;;;;;;;;;;;;;1.01;72.64;99267.95;1796336;80;20406;-72
2021/03/20 02:37:56;;;;;;;;;;;;;;;0.96;72.59;99262.58;1771497;80;20485;-72
2021/03/20 02:40:44;;;;;;;;;;;;;;;0.95;72.63;99266.58;1787353;80;20411;-71
2021/03/20 02:43:32;;;;;;;;;;;;;;;0.95;72.86;99272.64;1780196;80;20265;-71
2021/03/20 02:46:08;;;;;;;;;;;;;;;0.93;73.05;99261.46;1773113;80;20163;-71
2021/03/20 02:48:42;;;;;;;;;;;;;;;0.95;73.68;99263.53;1782296;80;20422;-71
2021/03/20 02:51:29;;;;;;;;;;;;;;;0.96;74.18;99265.19;1778083;80;20176;-71
2021/03/20 02:54:05;;;;;;;;;;;;;;;0.98;74.01;99269.48;1764112;80;20164;-71
2021/03/20 02:56:43;;;;;;;;;;;;;;;0.97;74.36;99267.31;1796246;80;20415;-71
2021/03/20 02:59:12;;;;;;;;;;;;;;;0.94;74.60;99269.66;1746458;80;20413;-72
2021/03/20 03:01:41;;;;;;;;;;;;;;;0.95;75.02;99270.48;1785130;80;20231;-71
2021/03/20 03:04:11;;;;;;;;;;;;;;;0.94;74.84;99271.44;1779041;80;20241;-71
2021/03/20 03:06:51;;;;;;;;;;;;;;;0.93;75.23;99274.95;1776994;80;20143;-71
2021/03/20 03:09:31;;;;;;;;;;;;;;;0.95;75.33;99276.55;1790392;80;20446;-71
2021/03/20 03:12:05;;;;;;;;;;;;;;;0.92;75.65;99276.73;1779719;80;20187;-71
2021/03/20 03:14:40;;;;;;;;;;;;;;;0.84;76.36;99275.09;1753688;80;20266;-71
2021/03/20 03:17:38;;;;;;;;;;;;;;;0.85;77.06;99281.12;1923950;74;20229;-70
2021/03/20 03:20:26;;;;;;;;;;;;;;;0.75;77.63;99281.70;1868570;75;20487;-71
2021/03/20 03:23:02;;;;;;;;;;;;;;;0.75;78.31;99286.08;1900589;75;20139;-71
2021/03/20 03:25:31;;;;;;;;;;;;;;;0.76;78.54;99289.03;1879831;75;20151;-70
2021/03/20 03:28:00;;;;;;;;;;;;;;;0.73;78.52;99294.41;1885260;75;20226;-71
2021/03/20 03:30:28;;;;;;;;;;;;;;;0.72;78.47;99290.98;1868785;75;20387;-71
2021/03/20 03:33:11;;;;;;;;;;;;;;;0.67;78.67;99293.03;1879494;75;20421;-71
2021/03/20 03:35:45;;;;;;;;;;;;;;;0.63;78.91;99290.73;1867033;77;20436;-71
2021/03/20 03:38:34;;;;;;;;;;;;;;;0.60;79.51;99284.39;1866483;77;20135;-71
2021/03/20 03:41:09;;;;;;;;;;;;;;;0.61;80.13;99288.69;1807371;77;20546;-70
2021/03/20 03:43:37;;;;;;;;;;;;;;;0.61;80.20;99297.80;1851190;77;20226;-71
2021/03/20 03:46:07;;;;;;;;;;;;;;;0.60;80.42;99290.91;1857970;77;20118;-71
2021/03/20 03:48:34;;;;;;;;;;;;;;;0.61;80.52;99289.52;1826106;77;20142;-71
2021/03/20 03:51:14;;;;;;;;;;;;;;;0.63;80.44;99291.55;1861550;77;20134;-71
2021/03/20 03:53:41;;;;;;;;;;;;;;;0.64;80.43;99286.73;1851267;77;20139;-70
2021/03/20 03:56:35;;;;;;;;;;;;;;;0.63;80.57;99292.03;1809492;77;20139;-70
2021/03/20 03:59:18;;;;;;;;;;;;;;;0.61;80.67;99295.19;1861844;77;20225;-71
2021/03/20 04:02:23;;;;;;;;;;;;;;;0.56;80.75;99296.76;1844649;77;20134;-70
2021/03/20 04:04:55;;;;;;;;;;;;;;;0.51;81.15;99298.36;1860695;77;20225;-71
2021/03/20 04:07:50;;;;;;;;;;;;;;;0.50;81.46;99292.77;1860826;77;20182;-71
2021/03/20 04:10:47;;;;;;;;;;;;;;;0.51;81.76;99294.92;1834547;77;20154;-71
2021/03/20 04:13:21;;;;;;;;;;;;;;;0.53;81.90;99301.70;1843505;77;20118;-71
2021/03/20 04:16:02;;;;;;;;;;;;;;;0.53;81.55;99300.39;1856522;77;20146;-71
2021/03/20 04:18:44;;;;;;;;;;;;;;;0.51;81.59;99304.03;1867559;77;20154;-70
2021/03/20 04:21:21;;;;;;;;;;;;;;;0.47;81.69;99305.98;1861428;77;20237;-70
2021/03/20 04:24:08;;;;;;;;;;;;;;;0.45;82.21;99303.08;1862553;77;20170;-70
2021/03/20 04:26:43;;;;;;;;;;;;;;;0.44;82.52;99299.66;1855010;77;20221;-70
2021/03/20 04:29:26;;;;;;;;;;;;;;;0.49;82.24;99307.20;1837781;77;20155;-70
2021/03/20 04:32:15;;;;;;;;;;;;;;;0.54;82.40;99311.63;1834080;77;20142;-70
2021/03/20 04:34:52;;;;;;;;;;;;;;;0.58;82.51;99311.37;1838980;77;20138;-70
2021/03/20 04:37:21;;;;;;;;;;;;;;;0.66;82.23;99312.67;1852190;77;20139;-70
2021/03/20 04:39:50;;;;;;;;;;;;;;;0.69;81.67;99313.77;1854272;77;20410;-70
2021/03/20 04:42:21;;;;;;;;;;;;;;;0.72;81.27;99316.19;1866369;77;20154;-70
2021/03/20 04:44:48;;;;;;;;;;;;;;;0.76;81.16;99317.66;1836273;77;20182;-70
2021/03/20 04:47:19;;;;;;;;;;;;;;;0.76;80.61;99312.46;1860255;77;20536;-69
2021/03/20 04:49:53;;;;;;;;;;;;;;;0.76;80.30;99313.77;1834089;77;20150;-72
2021/03/20 04:52:31;;;;;;;;;;;;;;;0.80;80.36;99313.94;1844119;77;20204;-71
2021/03/20 04:55:00;;;;;;;;;;;;;;;0.85;80.13;99315.80;1861367;77;20241;-72
2021/03/20 04:57:36;;;;;;;;;;;;;;;0.88;79.93;99323.42;1802615;77;20155;-71
2021/03/20 05:00:32;;;;;;;;;;;;;;;0.90;79.66;99322.03;1856587;77;20138;-71
2021/03/20 05:03:26;;;;;;;;;;;;;;;0.93;79.78;99323.13;1838418;77;20177;-71
2021/03/20 05:06:00;;;;;;;;;;;;;;;1.00;79.55;99327.50;1858904;77;20130;-71
2021/03/20 05:08:37;;;;;;;;;;;;;;;1.05;78.62;99330.63;1861278;77;20139;-71
2021/03/20 05:11:08;;;;;;;;;;;;;;;1.08;77.91;99338.27;1850239;77;20142;-71
2021/03/20 05:13:57;;;;;;;;;;;;;;;1.11;77.64;99334.17;1846636;77;20254;-72
2021/03/20 05:16:44;;;;;;;;;;;;;;;1.14;77.48;99339.17;1848028;77;20226;-71
2021/03/20 05:19:11;;;;;;;;;;;;;;;1.16;76.68;99332.13;1839396;77;20238;-71
2021/03/20 05:21:41;;;;;;;;;;;;;;;1.18;76.32;99339.38;1856116;77;20135;-71
2021/03/20 05:24:14;;;;;;;;;;;;;;;1.20;75.62;99336.64;1845693;77;20247;-71
2021/03/20 05:26:42;;;;;;;;;;;;;;;1.23;75.15;99337.77;1862707;77;20137;-71
2021/03/20 05:29:09;;;;;;;;;;;;;;;1.30;74.67;99345.56;1847448;77;20154;-71
2021/03/20 05:31:38;;;;;;;;;;;;;;;1.38;74.26;99344.59;1834171;77;20134;-71
2021/03/20 05:34:09;;;;;;;;;;;;;;;1.44;72.63;99344.67;1853361;77;20236;-72
2021/03/20 05:36:37;;;;;;;;;;;;;;;1.49;72.42;99349.13;1833300;77;20226;-72
2021/03/20 05:39:04;;;;;;;;;;;;;;;1.58;72.08;99342.02;1844342;77;20138;-71
2021/03/20 05:41:39;;;;;;;;;;;;;;;1.66;71.65;99346.27;1845851;77;20154;-71
2021/03/20 05:44:22;;;;;;;;;;;;;;;1.78;70.92;99347.70;1863766;77;20145;-71
2021/03/20 05:47:02;;;;;;;;;;;;;;;1.89;69.88;99356.52;1791531;77;20237;-72
2021/03/20 05:49:40;;;;;;;;;;;;;;;1.99;69.06;99351.52;1832591;77;20273;-71
2021/03/20 05:52:32;;;;;;;;;;;;;;;2.12;68.42;99347.63;1857034;77;20245;-72
2021/03/20 05:55:16;;;;;;;;;;;;;;;2.26;67.78;99354.52;1850081;77;20178;-71
2021/03/20 05:58:04;;;;;;;;;;;;;;;2.39;66.91;99359.27;1866149;77;20153;-71
2021/03/20 06:00:35;;;;;;;;;;;;;;;2.51;66.06;99364.98;1861079;77;20142;-72
2021/03/20 06:03:10;;;;;;;;;;;;;;;2.68;65.58;99357.77;1814962;77;20151;-72
2021/03/20 06:05:45;;;;;;;;;;;;;;;2.88;64.83;99354.62;1855215;77;20228;-71
2021/03/20 06:08:25;;;;;;;;;;;;;;;3.06;63.61;99366.02;1831578;77;20142;-73
2021/03/20 06:10:58;;;;;;;;;;;;;;;3.33;63.43;99362.38;1838069;77;20417;-73
2021/03/20 06:13:48;;;;;;;;;;;;;;;3.78;63.25;99367.39;1838108;77;20228;-72
2021/03/20 06:16:23;;;;;;;;;;;;;;;4.30;60.95;99373.12;1856852;77;20135;-72
2021/03/20 06:19:13;;;;;;;;;;;;;;;4.91;58.80;99367.61;1848397;77;20219;-71
2021/03/20 06:22:07;;;;;;;;;;;;;;;5.42;57.60;99367.54;1844919;77;20170;-71
2021/03/20 06:24:50;;;;;;;;;;;;;;;5.86;55.15;99373.63;1845994;77;20169;-71
2021/03/20 06:27:23;;;;;;;;;;;;;;;6.00;54.14;99370.73;1811356;78;20168;-71
2021/03/20 06:29:54;;;;;;;;;;;;;;;6.20;53.97;99378.74;1827404;78;20375;-72
2021/03/20 06:32:27;;;;;;;;;;;;;;;6.40;53.72;99377.91;1811845;78;20140;-71
2021/03/20 06:35:17;;;;;;;;;;;;;;;6.58;52.25;99380.80;1822319;78;20145;-72
2021/03/20 06:37:51;;;;;;;;;;;;;;;6.63;52.18;99380.39;1816233;78;20203;-73
2021/03/20 06:40:22;;;;;;;;;;;;;;;6.64;51.97;99380.76;1821889;78;20432;-71
2021/03/20 06:42:49;;;;;;;;;;;;;;;6.61;51.39;99387.58;1765681;78;20224;-72
2021/03/20 06:45:25;;;;;;;;;;;;;;;6.58;51.56;99386.05;1805507;78;20124;-70
2021/03/20 06:47:55;;;;;;;;;;;;;;;6.59;51.39;99385.08;1827611;78;20149;-71
2021/03/20 06:50:36;;;;;;;;;;;;;;;6.55;51.54;99384.16;1832073;78;20141;-73
2021/03/20 06:53:06;;;;;;;;;;;;;;;6.57;51.34;99390.94;1827615;78;20264;-72
2021/03/20 06:55:38;;;;;;;;;;;;;;;6.62;51.10;99386.59;1811269;78;20481;-72
2021/03/20 06:58:27;;;;;;;;;;;;;;;6.72;50.93;99398.01;1825280;78;20247;-73
2021/03/20 07:00:56;;;;;;;;;;;;;;;6.91;50.78;99396.44;1832710;78;20125;-71
2021/03/20 07:03:44;;;;;;;;;;;;;;;7.09;50.19;99392.23;1832450;78;20125;-72
2021/03/20 07:06:30;;;;;;;;;;;;;;;7.33;50.56;99401.56;1832786;78;20157;-72
2021/03/20 07:09:00;;;;;;;;;;;;;;;7.62;49.30;99397.70;1833657;78;20121;-72
2021/03/20 07:11:34;;;;;;;;;;;;;;;7.82;48.25;99399.88;1829581;78;20125;-73
2021/03/20 07:14:05;;;;;;;;;;;;;;;8.02;48.13;99405.97;1813424;78;20161;-73
2021/03/20 07:16:51;;;;;;;;;;;;;;;8.39;48.02;99405.76;1832028;78;20428;-73
2021/03/20 07:19:19;;;;;;;;;;;;;;;8.66;45.74;99406.34;1828052;78;20235;-72
2021/03/20 07:22:02;;;;;;;;;;;;;;;8.66;45.97;99415.58;1791540;78;20423;-73
2021/03/20 07:24:35;;;;;;;;;;;;;;;8.78;45.64;99410.98;1805832;78;20137;-73
2021/03/20 07:27:16;;;;;;;;;;;;;;;9.09;44.65;99414.19;1813570;78;20141;-73
2021/03/20 07:29:50;;;;;;;;;;;;;;;9.38;43.88;99425.95;1792782;78;20145;-73
2021/03/20 07:32:30;;;;;;;;;;;;;;;9.70;43.10;99424.16;1804212;78;20227;-72
2021/03/20 07:35:23;;;;;;;;;;;;;;;9.98;42.91;99424.11;1802031;78;20173;-72
2021/03/20 07:37:51;;;;;;;;;;;;;;;10.45;42.13;99427.03;1832933;78;20132;-71
2021/03/20 07:40:25;;;;;;;;;;;;;;;11.10;41.01;99434.57;1792754;78;20219;-72
2021/03/20 07:43:15;;;;;;;;;;;;;;;11.78;39.71;99425.74;1816718;78;20148;-72
2021/03/20 07:45:43;;;;;;;;;;;;;;;12.36;38.08;99429.80;1833921;78;20128;-72
2021/03/20 07:48:18;;;;;;;;;;;;;;;12.82;37.05;99428.27;1812591;78;20184;-74
2021/03/20 07:51:05;;;;;;;;;;;;;;;13.29;35.75;99432.47;1798982;78;20144;-71
2021/03/20 07:53:48;;;;;;;;;;;;;;;13.54;34.71;99434.06;1820009;77;20118;-74
2021/03/20 07:56:41;;;;;;;;;;;;;;;13.38;34.04;99434.95;1901712;74;20228;-73
2021/03/20 07:59:29;;;;;;;;;;;;;;;13.12;33.72;99428.53;1850505;77;20413;-73
2021/03/20 08:01:59;;;;;;;;;;;;;;;12.90;33.76;99437.22;1852968;77;20142;-73
2021/03/20 08:04:51;;;;;;;;;;;;;;;12.81;33.59;99437.24;1839898;77;20135;-71
2021/03/20 08:07:39;;;;;;;;;;;;;;;12.70;33.48;99435.41;1861434;77;20225;-71
2021/03/20 08:10:19;;;;;;;;;;;;;;;12.61;33.53;99432.78;1808530;78;20224;-71
2021/03/20 08:13:05;;;;;;;;;;;;;;;12.61;33.20;99432.78;1824186;78;20137;-71
2021/03/20 08:15:37;;;;;;;;;;;;;;;12.77;33.46;99438.58;1823036;78;20125;-71
2021/03/20 08:18:21;;;;;;;;;;;;;;;13.04;32.54;99431.22;1827234;78;20137;-70
2021/03/20 08:20:55;;;;;;;;;;;;;;;13.30;32.40;99431.48;1819714;78;20424;-72
2021/03/20 08:24:04;;;;;;;;;;;;;;;13.84;31.07;99436.05;1915274;74;20130;-71
2021/03/20 08:26:48;;;;;;;;;;;;;;;14.13;30.26;99436.19;1867792;75;20132;-72
2021/03/20 08:29:25;;;;;;;;;;;;;;;14.52;30.00;99439.73;1856399;77;20179;-70
2021/03/20 08:31:59;;;;;;;;;;;;;;;14.89;29.33;99439.43;1867932;77;20120;-71
2021/03/20 08:34:34;;;;;;;;;;;;;;;15.33;28.62;99435.94;1867006;77;20154;-71
2021/03/20 08:37:29;;;;;;;;;;;;;;;15.60;27.46;99437.11;1832839;77;20135;-70
2021/03/20 08:40:21;;;;;;;;;;;;;;;15.79;26.87;99441.05;1833841;78;20386;-70
2021/03/20 08:43:12;;;;;;;;;;;;;;;15.97;27.78;99437.13;1807813;77;20171;-70
2021/03/20 08:45:56;;;;;;;;;;;;;;;16.06;27.84;99436.81;1833707;77;20226;-70
2021/03/20 08:48:44;;;;;;;;;;;;;;;16.16;26.97;99441.02;1857040;77;20139;-70
2021/03/20 08:51:27;;;;;;;;;;;;;;;16.26;27.00;99446.88;1821242;77;20434;-69
2021/03/20 08:54:15;;;;;;;;;;;;;;;16.40;26.51;99448.66;1842891;77;20139;-71
2021/03/20 08:56:59;;;;;;;;;;;;;;;16.66;26.19;99441.88;1825030;78;20154;-71
2021/03/20 08:59:32;;;;;;;;;;;;;;;16.89;25.72;99443.02;1824201;78;20136;-71
2021/03/20 09:02:02;;;;;;;;;;;;;;;17.26;25.10;99442.30;1799437;77;20134;-69
2021/03/20 09:04:33;;;;;;;;;;;;;;;17.69;24.31;99445.27;1861381;77;20252;-70
2021/03/20 09:07:06;;;;;;;;;;;;;;;17.98;24.03;99452.20;1856409;77;20221;-70
2021/03/20 09:09:37;;;;;;;;;;;;;;;18.36;23.57;99447.11;1855644;77;20432;-70
2021/03/20 09:12:21;;;;;;;;;;;;;;;18.81;23.04;99452.73;1861902;77;20494;-71
2021/03/20 09:14:48;;;;;;;;;;;;;;;19.25;21.80;99445.55;1837915;77;20126;-70
2021/03/20 09:17:22;;;;;;;;;;;;;;;19.32;21.96;99436.45;1833046;78;20122;-70
2021/03/20 09:19:55;;;;;;;;;;;;;;;19.04;21.74;99451.47;1832931;78;20131;-71
2021/03/20 09:22:24;;;;;;;;;;;;;;;18.78;22.12;99451.77;1832859;78;20163;-71
2021/03/20 09:24:58;;;;;;;;;;;;;;;18.56;21.21;99451.67;1835878;77;20473;-70
2021/03/20 09:27:55;;;;;;;;;;;;;;;18.18;21.74;99456.23;1849268;77;20134;-70
2021/03/20 09:30:31;;;;;;;;;;;;;;;18.29;21.62;99448.98;1778008;77;20157;-71
2021/03/20 09:33:00;;;;;;;;;;;;;;;18.82;21.01;99460.24;1860712;77;20197;-72
2021/03/20 09:35:40;;;;;;;;;;;;;;;19.42;20.60;99457.45;1844758;76;20134;-71
2021/03/20 09:38:08;;;;;;;;;;;;;;;19.98;19.68;99450.11;1847732;77;20151;-71
2021/03/20 09:40:48;;;;;;;;;;;;;;;20.25;19.26;99453.97;1834055;77;20138;-73
2021/03/20 09:43:19;;;;;;;;;;;;;;;20.54;18.93;99453.05;1802228;78;20440;-72
2021/03/20 09:46:09;;;;;;;;;;;;;;;20.71;18.29;99459.55;1809503;78;20400;-73
2021/03/20 09:48:44;;;;;;;;;;;;;;;21.14;18.13;99457.39;1816587;78;20196;-72
2021/03/20 09:51:49;;;;;;;;;;;;;;;21.75;16.81;99446.78;1781660;79;20631;-72
2021/03/20 09:54:28;;;;;;;;;;;;;;;22.00;16.74;99449.89;1813567;78;20157;-72
2021/03/20 09:56:59;;;;;;;;;;;;;;;22.35;16.34;99453.23;1811298;78;20148;-73
2021/03/20 09:59:32;;;;;;;;;;;;;;;22.64;16.19;99448.30;1785588;79;20174;-73
2021/03/20 10:02:03;;;;;;;;;;;;;;;22.99;15.84;99452.89;1789041;78;20142;-74
2021/03/20 10:04:55;;;;;;;;;;;;;;;23.10;15.34;99451.80;1807184;78;20168;-74
2021/03/20 10:07:26;;;;;;;;;;;;;;;22.95;15.59;99442.30;1824108;78;20145;-75
2021/03/20 10:10:00;;;;;;;;;;;;;;;22.98;15.67;99447.20;1819670;78;20233;-73
2021/03/20 10:12:31;;;;;;;;;;;;;;;23.22;15.27;99445.88;1772750;79;20446;-75
2021/03/20 10:15:14;;;;;;;;;;;;;;;23.01;15.57;99445.39;1775549;79;20205;-74
2021/03/20 10:18:06;;;;;;;;;;;;;;;23.00;15.53;99448.31;1804770;78;20180;-75
2021/03/20 10:20:48;;;;;;;;;;;;;;;23.09;15.62;99442.89;1795958;78;20121;-74
2021/03/20 10:23:30;;;;;;;;;;;;;;;23.36;15.33;99445.08;1815470;78;20121;-72
2021/03/20 10:26:01;;;;;;;;;;;;;;;23.47;15.70;99440.72;1806686;78;20133;-73
2021/03/20 10:28:31;;;;;;;;;;;;;;;23.83;15.42;99431.49;1786747;79;20182;-73
2021/03/20 10:31:00;;;;;;;;;;;;;;;23.56;15.64;99430.66;1800393;78;20137;-73
2021/03/20 10:33:33;;;;;;;;;;;;;;;22.59;16.35;99440.09;1823847;78;20153;-73
2021/03/20 10:36:10;;;;;;;;;;;;;;;21.31;16.92;99436.64;1803691;78;20149;-72
2021/03/20 10:38:38;;;;;;;;;;;;;;;20.01;17.41;99435.42;1799944;78;20208;-74
2021/03/20 10:41:08;;;;;;;;;;;;;;;18.87;18.93;99444.38;1751464;81;20599;-73
2021/03/20 10:43:44;;;;;;;;;;;;;;;18.18;19.64;99435.67;1774322;80;20186;-72
2021/03/20 10:46:33;;;;;;;;;;;;;;;17.61;20.76;99437.73;1780840;79;20155;-73
2021/03/20 10:49:19;;;;;;;;;;;;;;;17.16;21.20;99437.31;1797473;79;20411;-73
2021/03/20 10:51:49;;;;;;;;;;;;;;;16.49;21.61;99438.14;1788625;80;20159;-70
2021/03/20 10:54:37;;;;;;;;;;;;;;;15.74;22.31;99438.11;1776527;79;20503;-71
2021/03/20 10:57:14;;;;;;;;;;;;;;;15.07;23.08;99435.88;1782548;79;20238;-73
2021/03/20 10:59:46;;;;;;;;;;;;;;;14.37;23.44;99443.67;1775272;79;20197;-71
2021/03/20 11:02:26;;;;;;;;;;;;;;;13.96;24.62;99442.63;1781980;79;20237;-71
2021/03/20 11:05:16;;;;;;;;;;;;;;;13.94;24.36;99436.16;1798277;79;20431;-69
2021/03/20 11:07:59;;;;;;;;;;;;;;;14.10;24.35;99436.56;1785458;79;20210;-71
2021/03/20 11:10:35;;;;;;;;;;;;;;;14.17;24.65;99432.68;1796715;79;20138;-72
2021/03/20 11:13:09;;;;;;;;;;;;;;;14.00;24.22;99435.95;1783721;80;20410;-72
2021/03/20 11:15:37;;;;;;;;;;;;;;;13.53;25.06;99434.23;1766139;80;20234;-71
2021/03/20 11:18:08;;;;;;;;;;;;;;;12.96;25.61;99434.73;1796545;80;20131;-71
2021/03/20 11:20:39;;;;;;;;;;;;;;;12.33;26.95;99441.58;1760027;80;20250;-71
2021/03/20 11:23:07;;;;;;;;;;;;;;;11.74;27.88;99438.95;1790333;80;20207;-72
2021/03/20 11:25:38;;;;;;;;;;;;;;;11.18;28.78;99435.09;1786989;79;20135;-70
2021/03/20 11:28:09;;;;;;;;;;;;;;;10.66;29.47;99440.76;1783748;79;20148;-69
2021/03/20 11:30:46;;;;;;;;;;;;;;;10.26;29.62;99436.76;1760331;79;20143;-71
2021/03/20 11:33:16;;;;;;;;;;;;;;;9.85;30.18;99444.29;1785952;79;20146;-70
2021/03/20 11:35:48;;;;;;;;;;;;;;;9.40;30.44;99442.96;1784589;79;20446;-71
2021/03/20 11:38:16;;;;;;;;;;;;;;;9.20;30.81;99436.92;1792906;79;20231;-70
2021/03/20 11:40:49;;;;;;;;;;;;;;;8.89;31.11;99435.87;1753160;80;20425;-71
2021/03/20 11:43:41;;;;;;;;;;;;;;;8.51;31.91;99441.08;1768775;79;20139;-72
2021/03/20 11:46:15;;;;;;;;;;;;;;;8.33;32.75;99440.91;1803150;79;20145;-71
2021/03/20 11:48:57;;;;;;;;;;;;;;;8.16;33.71;99446.39;1784390;79;20394;-70
2021/03/20 11:51:35;;;;;;;;;;;;;;;8.11;34.91;99446.45;1778838;79;20155;-70
2021/03/20 11:54:04;;;;;;;;;;;;;;;8.05;36.36;99447.02;1782393;79;20261;-71
2021/03/20 11:56:34;;;;;;;;;;;;;;;8.11;36.84;99453.05;1791304;79;20238;-71
2021/03/20 11:59:34;;;;;;;;;;;;;;;8.19;36.62;99446.59;1787928;79;20154;-71
2021/03/20 12:02:01;;;;;;;;;;;;;;;8.27;34.77;99441.47;1770892;79;21289;-71
2021/03/20 12:04:30;;;;;;;;;;;;;;;8.36;34.08;99438.50;1759509;79;20266;-71
2021/03/20 12:07:14;;;;;;;;;;;;;;;8.43;34.31;99439.61;1754474;79;20176;-72
2021/03/20 12:10:24;;;;;;;;;;;;;;;8.74;34.14;99423.13;1928950;74;20229;-70
2021/03/20 12:12:53;;;;;;;;;;;;;;;8.86;34.15;99429.05;1901590;75;20487;-70
2021/03/20 12:15:26;;;;;;;;;;;;;;;9.13;33.83;99423.01;1890084;75;20132;-71
2021/03/20 12:17:56;;;;;;;;;;;;;;;9.31;33.49;99424.86;1856988;75;20415;-69
2021/03/20 12:20:30;;;;;;;;;;;;;;;9.43;32.84;99422.39;1901132;75;20345;-72
2021/03/20 12:23:12;;;;;;;;;;;;;;;9.57;32.55;99424.19;1902119;75;20420;-70
2021/03/20 12:25:46;;;;;;;;;;;;;;;9.68;32.41;99420.02;1877068;75;20144;-70
2021/03/20 12:28:39;;;;;;;;;;;;;;;9.68;31.84;99419.52;1903232;75;20128;-71
2021/03/20 12:31:22;;;;;;;;;;;;;;;9.58;32.14;99424.55;1902995;75;20136;-70
2021/03/20 12:34:02;;;;;;;;;;;;;;;9.46;31.78;99419.47;1865657;75;20300;-72
2021/03/20 12:36:36;;;;;;;;;;;;;;;9.40;31.88;99407.33;1839887;77;20328;-71
2021/03/20 12:39:08;;;;;;;;;;;;;;;9.31;32.87;99415.16;1861944;77;20398;-71
2021/03/20 12:41:36;;;;;;;;;;;;;;;9.26;35.03;99416.08;1839814;77;20221;-71
2021/03/20 12:44:13;;;;;;;;;;;;;;;9.08;35.50;99416.01;1834632;77;20138;-71
2021/03/20 12:46:45;;;;;;;;;;;;;;;8.88;36.04;99413.09;1832614;77;20126;-71
2021/03/20 12:49:22;;;;;;;;;;;;;;;8.65;37.13;99412.61;1861583;77;20126;-70
2021/03/20 12:51:50;;;;;;;;;;;;;;;8.48;37.51;99414.99;1868090;77;20169;-70
2021/03/20 12:54:25;;;;;;;;;;;;;;;8.32;36.13;99414.23;1814828;77;20163;-70
2021/03/20 12:56:53;;;;;;;;;;;;;;;8.22;36.06;99409.94;1844921;77;20143;-71
2021/03/20 12:59:20;;;;;;;;;;;;;;;8.23;35.68;99409.80;1854657;77;20225;-70
2021/03/20 13:01:49;;;;;;;;;;;;;;;8.21;35.35;99406.94;1840311;77;20398;-71
2021/03/20 13:04:18;;;;;;;;;;;;;;;8.16;34.92;99410.01;1860855;77;20135;-71
2021/03/20 13:06:46;;;;;;;;;;;;;;;8.01;34.80;99410.91;1838743;77;20472;-70
2021/03/20 13:09:14;;;;;;;;;;;;;;;7.85;34.74;99409.30;1867940;77;20137;-71
2021/03/20 13:11:41;;;;;;;;;;;;;;;7.63;35.78;99408.59;1867814;77;20233;-71
2021/03/20 13:14:09;;;;;;;;;;;;;;;7.51;36.04;99408.34;1839117;77;20228;-69
2021/03/20 13:16:38;;;;;;;;;;;;;;;7.44;36.70;99410.66;1867281;77;20122;-69
2021/03/20 13:19:05;;;;;;;;;;;;;;;7.39;37.26;99411.58;1867935;77;20130;-71
2021/03/20 13:21:33;;;;;;;;;;;;;;;7.30;37.88;99410.57;1855672;77;20142;-70
2021/03/20 13:24:01;;;;;;;;;;;;;;;7.19;38.51;99406.73;1844543;77;20177;-71
2021/03/20 13:26:30;;;;;;;;;;;;;;;7.18;38.97;99405.90;1861329;77;20225;-70
2021/03/20 13:28:58;;;;;;;;;;;;;;;7.17;39.22;99405.54;1861177;77;20139;-70
2021/03/20 13:31:25;;;;;;;;;;;;;;;7.13;39.25;99402.00;1864808;77;20225;-70
2021/03/20 13:33:53;;;;;;;;;;;;;;;7.00;39.53;99406.17;1841831;77;20173;-72
2021/03/20 13:36:21;;;;;;;;;;;;;;;6.89;39.60;99401.00;1835991;77;20173;-70
2021/03/20 13:38:50;;;;;;;;;;;;;;;6.79;39.83;99399.16;1837127;77;20189;-70
2021/03/20 13:41:18;;;;;;;;;;;;;;;6.68;39.81;99398.41;1851454;77;20143;-71